map of ETNH home
ETNH - Airport
Location
City:  Hohn, Schleswig-Holstein, Germany
ICAO:ETNH

Details
Type:Airport (Flugplatz, Airfield)
Use:Military
Latitude:5418'44"N (54.312200)
Longitude:932'17"E (9.538150)
Elevation:39 ft (12 m)
Variation:2.81E (WMM2015 magnetic declination)
0.14 annual change
Runways:1
Longest:8005 × 98 ft (2440 × 30 m), paved

Time
Time Zone:UTC+1 (DST+2)
Local Time:

Weather
METAR:ETNH 210920Z 20006KT 5000 BR FEW011 SCT050 BKN090 M02/M05 Q1019 WHT WHT TEMPO YLO
TAF:ETNH 202300Z 2100/2118 23003KT 8000 NSW BKN120
TEMPO 2100/2108 VRB03KT 3000 MIFG SCT120 PROB30 2100/2108 10003KT 0500 FZFG BKN001
TEMPO 2108/2112 24010KT 2000 -SHSN SCT015 BKN030TCU BY ETGL

Related Locations
Nearby:
Farthest:CHT: 11656 mi / 18759 km
Waitangi [Tuuta], CIT, NZ

Find:

   beyond  
but within

Other Information
Maps:
NOTAMs:
Links:
Sources:

  
  • flag of Germany
  • flag of Schleswig-Holstein
  

Sectional Chart

Flight Planning
at skyvector.com

Satellite Image

Google Maps Satellite view

 

Copyright © 2004-2019 Karl L. Swartz. All rights reserved.
The Great Circle Mapper name and logo are trademarks of the Great Circle Mapper.
All other trademarks mentioned herein belong to their respective owners.
Please see credits for attibutions and further copyright information.

  Follow gcmap on Facebook Follow gcmap on Twitter Follow gcmap on Google+ GCmap on LinkedIn

hCard Microformat

Geo Microformat